sensor_id;sensor_type;location;lat;lon;timestamp;temperature;humidity
21928;DHT22;11128;51.096;17.190;2022-10-31T00:04:38;9.40;99.90
21928;DHT22;11128;51.096;17.190;2022-10-31T00:09:40;9.30;99.90
21928;DHT22;11128;51.096;17.190;2022-10-31T00:14:42;9.30;99.90
21928;DHT22;11128;51.096;17.190;2022-10-31T00:19:43;9.20;99.90
21928;DHT22;11128;51.096;17.190;2022-10-31T00:24:44;9.20;99.90
21928;DHT22;11128;51.096;17.190;2022-10-31T00:29:46;9.10;99.90
21928;DHT22;11128;51.096;17.190;2022-10-31T00:34:47;9.10;99.90
21928;DHT22;11128;51.096;17.190;2022-10-31T00:39:48;9.00;99.90
21928;DHT22;11128;51.096;17.190;2022-10-31T00:44:50;9.00;99.90
21928;DHT22;11128;51.096;17.190;2022-10-31T00:49:52;8.90;99.90
21928;DHT22;11128;51.096;17.190;2022-10-31T00:54:53;8.90;99.90
21928;DHT22;11128;51.096;17.190;2022-10-31T00:59:54;8.80;99.90
21928;DHT22;11128;51.096;17.190;2022-10-31T01:04:56;8.70;99.90
21928;DHT22;11128;51.096;17.190;2022-10-31T01:09:57;8.80;99.90
21928;DHT22;11128;51.096;17.190;2022-10-31T01:14:58;8.90;99.90
21928;DHT22;11128;51.096;17.190;2022-10-31T01:19:59;8.90;99.90
21928;DHT22;11128;51.096;17.190;2022-10-31T01:25:01;8.90;99.90
21928;DHT22;11128;51.096;17.190;2022-10-31T01:30:03;8.80;99.90
21928;DHT22;11128;51.096;17.190;2022-10-31T01:35:05;8.70;99.90
21928;DHT22;11128;51.096;17.190;2022-10-31T01:40:07;8.60;99.90
21928;DHT22;11128;51.096;17.190;2022-10-31T01:45:10;8.60;99.90
21928;DHT22;11128;51.096;17.190;2022-10-31T01:50:25;8.50;99.90
21928;DHT22;11128;51.096;17.190;2022-10-31T01:55:37;8.50;99.90
21928;DHT22;11128;51.096;17.190;2022-10-31T02:00:43;8.50;99.90
21928;DHT22;11128;51.096;17.190;2022-10-31T02:05:46;8.40;99.90
21928;DHT22;11128;51.096;17.190;2022-10-31T02:10:48;8.40;99.90
21928;DHT22;11128;51.096;17.190;2022-10-31T02:15:52;8.30;99.90
21928;DHT22;11128;51.096;17.190;2022-10-31T02:36:46;8.10;99.90
21928;DHT22;11128;51.096;17.190;2022-10-31T02:47:09;8.10;99.90
21928;DHT22;11128;51.096;17.190;2022-10-31T02:52:25;8.10;99.90
21928;DHT22;11128;51.096;17.190;2022-10-31T02:57:31;8.10;99.90
21928;DHT22;11128;51.096;17.190;2022-10-31T03:08:02;7.90;99.90
21928;DHT22;11128;51.096;17.190;2022-10-31T03:13:21;7.90;99.90
21928;DHT22;11128;51.096;17.190;2022-10-31T03:18:26;7.90;99.90
21928;DHT22;11128;51.096;17.190;2022-10-31T03:23:30;7.90;99.90
21928;DHT22;11128;51.096;17.190;2022-10-31T03:29:01;7.80;99.90
21928;DHT22;11128;51.096;17.190;2022-10-31T03:34:04;7.80;99.90
21928;DHT22;11128;51.096;17.190;2022-10-31T03:39:10;7.70;99.90
21928;DHT22;11128;51.096;17.190;2022-10-31T03:44:15;7.70;99.90
21928;DHT22;11128;51.096;17.190;2022-10-31T03:49:17;7.60;99.90
21928;DHT22;11128;51.096;17.190;2022-10-31T03:54:42;7.60;99.90
21928;DHT22;11128;51.096;17.190;2022-10-31T03:59:48;7.50;99.90
21928;DHT22;11128;51.096;17.190;2022-10-31T04:04:52;7.50;99.90
21928;DHT22;11128;51.096;17.190;2022-10-31T04:09:54;7.50;99.90
21928;DHT22;11128;51.096;17.190;2022-10-31T04:14:57;7.40;99.90
21928;DHT22;11128;51.096;17.190;2022-10-31T04:20:00;7.40;99.90
21928;DHT22;11128;51.096;17.190;2022-10-31T04:25:01;7.30;99.90
21928;DHT22;11128;51.096;17.190;2022-10-31T04:30:03;7.30;99.90
21928;DHT22;11128;51.096;17.190;2022-10-31T04:35:05;7.30;99.90
21928;DHT22;11128;51.096;17.190;2022-10-31T04:40:07;7.20;99.90
21928;DHT22;11128;51.096;17.190;2022-10-31T04:45:08;7.30;99.90
21928;DHT22;11128;51.096;17.190;2022-10-31T04:50:09;7.20;99.90
21928;DHT22;11128;51.096;17.190;2022-10-31T04:55:12;7.10;99.90
21928;DHT22;11128;51.096;17.190;2022-10-31T05:00:16;7.10;99.90
21928;DHT22;11128;51.096;17.190;2022-10-31T05:05:20;7.10;99.90
21928;DHT22;11128;51.096;17.190;2022-10-31T05:10:27;7.00;99.90
21928;DHT22;11128;51.096;17.190;2022-10-31T05:15:29;7.00;99.90
21928;DHT22;11128;51.096;17.190;2022-10-31T05:20:31;7.00;99.90
21928;DHT22;11128;51.096;17.190;2022-10-31T05:25:33;7.00;99.90
21928;DHT22;11128;51.096;17.190;2022-10-31T05:30:35;7.00;99.90
21928;DHT22;11128;51.096;17.190;2022-10-31T05:35:36;6.90;99.90
21928;DHT22;11128;51.096;17.190;2022-10-31T05:40:37;7.00;99.90
21928;DHT22;11128;51.096;17.190;2022-10-31T05:45:38;7.00;99.90
21928;DHT22;11128;51.096;17.190;2022-10-31T05:50:40;6.90;99.90
21928;DHT22;11128;51.096;17.190;2022-10-31T05:55:42;7.00;99.90
21928;DHT22;11128;51.096;17.190;2022-10-31T06:00:44;6.90;99.90
21928;DHT22;11128;51.096;17.190;2022-10-31T06:05:45;6.90;99.90
21928;DHT22;11128;51.096;17.190;2022-10-31T06:10:47;6.90;99.90
21928;DHT22;11128;51.096;17.190;2022-10-31T06:15:48;6.90;99.90
21928;DHT22;11128;51.096;17.190;2022-10-31T06:20:50;7.10;99.90
21928;DHT22;11128;51.096;17.190;2022-10-31T06:25:52;7.10;99.90
21928;DHT22;11128;51.096;17.190;2022-10-31T06:30:53;7.10;99.90
21928;DHT22;11128;51.096;17.190;2022-10-31T06:35:54;7.30;99.90
21928;DHT22;11128;51.096;17.190;2022-10-31T06:40:55;7.40;99.90
21928;DHT22;11128;51.096;17.190;2022-10-31T06:45:57;7.50;99.90
21928;DHT22;11128;51.096;17.190;2022-10-31T06:50:59;7.80;99.90
21928;DHT22;11128;51.096;17.190;2022-10-31T06:56:01;8.00;99.90
21928;DHT22;11128;51.096;17.190;2022-10-31T07:01:02;8.20;99.90
21928;DHT22;11128;51.096;17.190;2022-10-31T07:06:04;8.50;99.90
21928;DHT22;11128;51.096;17.190;2022-10-31T07:11:06;8.80;99.90
21928;DHT22;11128;51.096;17.190;2022-10-31T07:16:07;9.10;99.90
21928;DHT22;11128;51.096;17.190;2022-10-31T07:21:09;9.50;99.90
21928;DHT22;11128;51.096;17.190;2022-10-31T07:26:10;9.90;99.90
21928;DHT22;11128;51.096;17.190;2022-10-31T07:31:12;10.40;99.90
21928;DHT22;11128;51.096;17.190;2022-10-31T07:36:13;10.80;99.90
21928;DHT22;11128;51.096;17.190;2022-10-31T07:41:15;11.30;99.90
21928;DHT22;11128;51.096;17.190;2022-10-31T07:46:16;11.70;99.90
21928;DHT22;11128;51.096;17.190;2022-10-31T07:51:18;12.10;99.90
21928;DHT22;11128;51.096;17.190;2022-10-31T07:56:19;12.70;99.90
21928;DHT22;11128;51.096;17.190;2022-10-31T08:01:21;13.00;99.90
21928;DHT22;11128;51.096;17.190;2022-10-31T08:06:22;13.40;99.90
21928;DHT22;11128;51.096;17.190;2022-10-31T08:11:23;13.90;99.90
21928;DHT22;11128;51.096;17.190;2022-10-31T08:16:28;14.40;99.90
21928;DHT22;11128;51.096;17.190;2022-10-31T08:21:31;14.90;99.90
21928;DHT22;11128;51.096;17.190;2022-10-31T08:26:34;15.40;99.90
21928;DHT22;11128;51.096;17.190;2022-10-31T08:31:36;15.80;99.90
21928;DHT22;11128;51.096;17.190;2022-10-31T08:36:38;16.40;99.90
21928;DHT22;11128;51.096;17.190;2022-10-31T08:41:39;16.90;99.90
21928;DHT22;11128;51.096;17.190;2022-10-31T08:46:41;17.40;99.90
21928;DHT22;11128;51.096;17.190;2022-10-31T08:51:43;18.00;99.90
21928;DHT22;11128;51.096;17.190;2022-10-31T08:56:44;18.40;94.70
21928;DHT22;11128;51.096;17.190;2022-10-31T09:01:46;18.70;90.00
21928;DHT22;11128;51.096;17.190;2022-10-31T09:06:47;19.00;88.50
21928;DHT22;11128;51.096;17.190;2022-10-31T09:11:49;19.20;84.40
21928;DHT22;11128;51.096;17.190;2022-10-31T09:16:51;19.70;77.70
21928;DHT22;11128;51.096;17.190;2022-10-31T09:21:53;20.10;70.30
21928;DHT22;11128;51.096;17.190;2022-10-31T09:26:55;20.20;66.20
21928;DHT22;11128;51.096;17.190;2022-10-31T09:31:56;20.30;57.90
21928;DHT22;11128;51.096;17.190;2022-10-31T09:36:58;20.30;58.80
21928;DHT22;11128;51.096;17.190;2022-10-31T09:53:11;21.30;50.90
21928;DHT22;11128;51.096;17.190;2022-10-31T09:58:18;21.60;49.50
21928;DHT22;11128;51.096;17.190;2022-10-31T10:03:29;21.70;48.20
21928;DHT22;11128;51.096;17.190;2022-10-31T10:08:34;21.60;48.00
21928;DHT22;11128;51.096;17.190;2022-10-31T10:29:34;22.50;43.30
21928;DHT22;11128;51.096;17.190;2022-10-31T10:34:47;22.70;43.00
21928;DHT22;11128;51.096;17.190;2022-10-31T10:39:55;23.10;41.30
21928;DHT22;11128;51.096;17.190;2022-10-31T10:44:58;23.50;39.60
21928;DHT22;11128;51.096;17.190;2022-10-31T10:50:22;23.60;38.70
21928;DHT22;11128;51.096;17.190;2022-10-31T11:00:39;24.00;36.50
21928;DHT22;11128;51.096;17.190;2022-10-31T11:05:57;24.50;35.00
21928;DHT22;11128;51.096;17.190;2022-10-31T11:16:44;24.90;32.20
21928;DHT22;11128;51.096;17.190;2022-10-31T11:21:47;25.30;31.30
21928;DHT22;11128;51.096;17.190;2022-10-31T11:26:49;25.40;29.80
21928;DHT22;11128;51.096;17.190;2022-10-31T11:31:59;25.50;29.40
21928;DHT22;11128;51.096;17.190;2022-10-31T11:37:25;25.90;29.20
21928;DHT22;11128;51.096;17.190;2022-10-31T11:42:36;26.40;28.80
21928;DHT22;11128;51.096;17.190;2022-10-31T11:47:43;26.60;27.70
21928;DHT22;11128;51.096;17.190;2022-10-31T11:52:46;26.80;27.20
21928;DHT22;11128;51.096;17.190;2022-10-31T11:57:50;26.90;26.60
21928;DHT22;11128;51.096;17.190;2022-10-31T12:03:12;27.10;26.20
21928;DHT22;11128;51.096;17.190;2022-10-31T12:08:15;27.20;26.40
21928;DHT22;11128;51.096;17.190;2022-10-31T12:24:00;27.50;25.40
21928;DHT22;11128;51.096;17.190;2022-10-31T12:51:08;27.40;25.30
21928;DHT22;11128;51.096;17.190;2022-10-31T12:56:27;27.40;25.30
21928;DHT22;11128;51.096;17.190;2022-10-31T13:01:51;27.30;25.10
21928;DHT22;11128;51.096;17.190;2022-10-31T13:07:02;27.00;26.10
21928;DHT22;11128;51.096;17.190;2022-10-31T13:12:09;27.00;25.90
21928;DHT22;11128;51.096;17.190;2022-10-31T13:17:34;26.90;26.50
21928;DHT22;11128;51.096;17.190;2022-10-31T13:22:37;27.00;26.70
21928;DHT22;11128;51.096;17.190;2022-10-31T13:27:44;27.00;26.70
21928;DHT22;11128;51.096;17.190;2022-10-31T13:48:42;25.80;28.90
21928;DHT22;11128;51.096;17.190;2022-10-31T14:04:20;24.80;31.60
21928;DHT22;11128;51.096;17.190;2022-10-31T14:14:48;25.00;31.40
21928;DHT22;11128;51.096;17.190;2022-10-31T14:20:21;24.90;32.20
21928;DHT22;11128;51.096;17.190;2022-10-31T14:25:29;24.50;32.70
21928;DHT22;11128;51.096;17.190;2022-10-31T14:30:31;24.30;34.50
21928;DHT22;11128;51.096;17.190;2022-10-31T14:51:46;22.50;42.20
21928;DHT22;11128;51.096;17.190;2022-10-31T14:56:52;22.10;45.10
21928;DHT22;11128;51.096;17.190;2022-10-31T15:02:01;21.70;49.70
21928;DHT22;11128;51.096;17.190;2022-10-31T15:07:23;21.10;57.00
21928;DHT22;11128;51.096;17.190;2022-10-31T15:12:34;20.50;72.00
21928;DHT22;11128;51.096;17.190;2022-10-31T15:17:44;19.80;91.60
21928;DHT22;11128;51.096;17.190;2022-10-31T15:22:47;19.20;99.90
21928;DHT22;11128;51.096;17.190;2022-10-31T15:27:50;18.50;99.90
21928;DHT22;11128;51.096;17.190;2022-10-31T15:32:52;18.10;99.90
21928;DHT22;11128;51.096;17.190;2022-10-31T15:37:55;17.70;99.90
21928;DHT22;11128;51.096;17.190;2022-10-31T15:43:03;17.30;99.90
21928;DHT22;11128;51.096;17.190;2022-10-31T15:48:37;16.90;99.90
21928;DHT22;11128;51.096;17.190;2022-10-31T15:53:49;16.60;99.90
21928;DHT22;11128;51.096;17.190;2022-10-31T15:58:53;16.30;99.90
21928;DHT22;11128;51.096;17.190;2022-10-31T16:09:21;15.80;99.90
21928;DHT22;11128;51.096;17.190;2022-10-31T16:14:26;15.70;99.90
21928;DHT22;11128;51.096;17.190;2022-10-31T16:19:33;15.40;99.90
21928;DHT22;11128;51.096;17.190;2022-10-31T16:29:57;15.10;99.90
21928;DHT22;11128;51.096;17.190;2022-10-31T16:40:11;14.70;99.90
21928;DHT22;11128;51.096;17.190;2022-10-31T16:45:20;14.50;99.90
21928;DHT22;11128;51.096;17.190;2022-10-31T16:50:24;14.30;99.90
21928;DHT22;11128;51.096;17.190;2022-10-31T16:55:27;14.30;99.90
21928;DHT22;11128;51.096;17.190;2022-10-31T17:00:28;14.20;99.90
21928;DHT22;11128;51.096;17.190;2022-10-31T17:05:30;14.00;99.90
21928;DHT22;11128;51.096;17.190;2022-10-31T17:10:34;13.80;99.90
21928;DHT22;11128;51.096;17.190;2022-10-31T17:15:38;13.70;99.90
21928;DHT22;11128;51.096;17.190;2022-10-31T17:20:42;13.50;99.90
21928;DHT22;11128;51.096;17.190;2022-10-31T17:25:45;13.30;99.90
21928;DHT22;11128;51.096;17.190;2022-10-31T17:30:47;13.30;99.90
21928;DHT22;11128;51.096;17.190;2022-10-31T17:35:48;13.20;99.90
21928;DHT22;11128;51.096;17.190;2022-10-31T17:40:49;13.10;99.90
21928;DHT22;11128;51.096;17.190;2022-10-31T17:45:50;13.00;99.90
21928;DHT22;11128;51.096;17.190;2022-10-31T17:50:52;12.90;99.90
21928;DHT22;11128;51.096;17.190;2022-10-31T17:55:53;12.80;99.90
21928;DHT22;11128;51.096;17.190;2022-10-31T18:00:54;12.70;99.90
21928;DHT22;11128;51.096;17.190;2022-10-31T18:05:57;12.60;99.90
21928;DHT22;11128;51.096;17.190;2022-10-31T18:11:05;12.50;99.90
21928;DHT22;11128;51.096;17.190;2022-10-31T18:16:12;12.40;99.90
21928;DHT22;11128;51.096;17.190;2022-10-31T18:21:14;12.30;99.90
21928;DHT22;11128;51.096;17.190;2022-10-31T18:26:15;12.10;99.90
21928;DHT22;11128;51.096;17.190;2022-10-31T18:31:17;12.00;99.90
21928;DHT22;11128;51.096;17.190;2022-10-31T18:36:19;12.00;99.90
21928;DHT22;11128;51.096;17.190;2022-10-31T18:41:20;11.80;99.90
21928;DHT22;11128;51.096;17.190;2022-10-31T18:46:21;11.70;99.90
21928;DHT22;11128;51.096;17.190;2022-10-31T18:51:22;11.60;99.90
21928;DHT22;11128;51.096;17.190;2022-10-31T18:56:25;11.50;99.90
21928;DHT22;11128;51.096;17.190;2022-10-31T19:01:27;11.40;99.90
21928;DHT22;11128;51.096;17.190;2022-10-31T19:06:29;11.30;99.90
21928;DHT22;11128;51.096;17.190;2022-10-31T19:11:32;11.20;99.90
21928;DHT22;11128;51.096;17.190;2022-10-31T19:16:34;11.20;99.90
21928;DHT22;11128;51.096;17.190;2022-10-31T19:21:35;11.10;99.90
21928;DHT22;11128;51.096;17.190;2022-10-31T19:26:36;11.00;99.90
21928;DHT22;11128;51.096;17.190;2022-10-31T19:31:38;10.90;99.90
21928;DHT22;11128;51.096;17.190;2022-10-31T19:36:39;10.80;99.90
21928;DHT22;11128;51.096;17.190;2022-10-31T19:41:41;10.80;99.90
21928;DHT22;11128;51.096;17.190;2022-10-31T19:46:42;10.70;99.90
21928;DHT22;11128;51.096;17.190;2022-10-31T19:51:45;10.70;99.90
21928;DHT22;11128;51.096;17.190;2022-10-31T19:56:46;10.60;99.90
21928;DHT22;11128;51.096;17.190;2022-10-31T20:01:47;10.60;99.90
21928;DHT22;11128;51.096;17.190;2022-10-31T20:06:49;10.50;99.90
21928;DHT22;11128;51.096;17.190;2022-10-31T20:11:51;10.50;99.90
21928;DHT22;11128;51.096;17.190;2022-10-31T20:16:52;10.40;99.90
21928;DHT22;11128;51.096;17.190;2022-10-31T20:21:54;10.30;99.90
21928;DHT22;11128;51.096;17.190;2022-10-31T20:26:55;10.30;99.90
21928;DHT22;11128;51.096;17.190;2022-10-31T20:31:56;10.30;99.90
21928;DHT22;11128;51.096;17.190;2022-10-31T20:36:57;10.20;99.90
21928;DHT22;11128;51.096;17.190;2022-10-31T20:41:58;10.10;99.90
21928;DHT22;11128;51.096;17.190;2022-10-31T20:47:00;10.00;99.90
21928;DHT22;11128;51.096;17.190;2022-10-31T20:52:01;10.00;99.90
21928;DHT22;11128;51.096;17.190;2022-10-31T20:57:02;10.00;99.90
21928;DHT22;11128;51.096;17.190;2022-10-31T21:02:03;10.00;99.90
21928;DHT22;11128;51.096;17.190;2022-10-31T21:07:05;9.90;99.90
21928;DHT22;11128;51.096;17.190;2022-10-31T21:12:06;9.90;99.90
21928;DHT22;11128;51.096;17.190;2022-10-31T21:17:07;9.90;99.90
21928;DHT22;11128;51.096;17.190;2022-10-31T21:22:08;9.80;99.90
21928;DHT22;11128;51.096;17.190;2022-10-31T21:27:09;9.80;99.90
21928;DHT22;11128;51.096;17.190;2022-10-31T21:32:10;9.80;99.90
21928;DHT22;11128;51.096;17.190;2022-10-31T21:37:12;9.80;99.90
21928;DHT22;11128;51.096;17.190;2022-10-31T21:42:13;9.80;99.90
21928;DHT22;11128;51.096;17.190;2022-10-31T21:47:15;9.70;99.90
21928;DHT22;11128;51.096;17.190;2022-10-31T21:52:17;9.70;99.90
21928;DHT22;11128;51.096;17.190;2022-10-31T21:57:18;9.60;99.90
21928;DHT22;11128;51.096;17.190;2022-10-31T22:02:19;9.60;99.90
21928;DHT22;11128;51.096;17.190;2022-10-31T22:07:21;9.60;99.90
21928;DHT22;11128;51.096;17.190;2022-10-31T22:12:22;9.60;99.90
21928;DHT22;11128;51.096;17.190;2022-10-31T22:17:23;9.50;99.90
21928;DHT22;11128;51.096;17.190;2022-10-31T22:22:24;9.50;99.90
21928;DHT22;11128;51.096;17.190;2022-10-31T22:27:26;9.50;99.90
21928;DHT22;11128;51.096;17.190;2022-10-31T22:32:27;9.40;99.90
21928;DHT22;11128;51.096;17.190;2022-10-31T22:37:28;9.30;99.90
21928;DHT22;11128;51.096;17.190;2022-10-31T22:42:29;9.30;99.90
21928;DHT22;11128;51.096;17.190;2022-10-31T22:47:31;9.20;99.90
21928;DHT22;11128;51.096;17.190;2022-10-31T22:52:32;9.20;99.90
21928;DHT22;11128;51.096;17.190;2022-10-31T22:57:33;9.10;99.90
21928;DHT22;11128;51.096;17.190;2022-10-31T23:02:34;9.10;99.90
21928;DHT22;11128;51.096;17.190;2022-10-31T23:07:35;9.10;99.90
21928;DHT22;11128;51.096;17.190;2022-10-31T23:12:39;9.40;99.90
21928;DHT22;11128;51.096;17.190;2022-10-31T23:17:59;9.10;99.90
21928;DHT22;11128;51.096;17.190;2022-10-31T23:23:01;9.10;99.90
21928;DHT22;11128;51.096;17.190;2022-10-31T23:28:04;9.00;99.90
21928;DHT22;11128;51.096;17.190;2022-10-31T23:33:05;9.00;99.90
21928;DHT22;11128;51.096;17.190;2022-10-31T23:38:07;8.90;99.90
21928;DHT22;11128;51.096;17.190;2022-10-31T23:43:08;8.90;99.90
21928;DHT22;11128;51.096;17.190;2022-10-31T23:48:09;8.80;99.90
21928;DHT22;11128;51.096;17.190;2022-10-31T23:53:11;8.80;99.90
21928;DHT22;11128;51.096;17.190;2022-10-31T23:58:12;8.80;99.90
